Track Кутьева Полина

Time Latitude Longitude Accuracy (66% radius in meters) Altitude (meters) Speed (km/hour) Bearing (degrees) Battery (%) GPS flag
10:18:55 44.559000 38.197405 12 85.96735989849 0.0066997557878494 76.381568908691 86 1 delete
10:18:46 44.559000 38.197405 8 85.210690065191 0.48745736479759 76.381568908691 86 1 delete
10:18:34 44.558993 38.197369 12 85.392982424678 0 345.40328979492 86 1 delete
10:18:19 44.558993 38.197369 24 86.050208878894 0 345.40328979492 86 1 delete
10:18:07 44.558993 38.197369 16 86.720837417709 0.034387916326523 345.40328979492 86 1 delete
10:17:43 44.558974 38.197372 24 88.732645846242 0 345.40328979492 86 1 delete
10:17:31 44.558970 38.197369 12 88.624740950251 0 345.40328979492 86 1 delete
10:17:19 44.558970 38.197369 12 88.877784835831 0 345.40328979492 86 1 delete
10:17:07 44.558970 38.197369 16 89.169876657999 0 345.40328979492 86 1 delete
10:16:55 44.558966 38.197397 24 89.394612645726 0.14249922335148 167.37130737305 86 1 delete
10:16:46 44.558974 38.197399 16 89.686450681914 0 167.37130737305 86 1 delete
10:16:34 44.558999 38.197400 16 90.054864393441 0.65170013904572 151.82200622559 86 1 delete
10:16:22 44.559012 38.197392 16 90.173188893461 0.56932258605957 342.46215820312 86 1 delete
10:16:10 44.559020 38.197381 12 90.4254159685 0.17222428321838 342.46215820312 86 1 delete
10:15:58 44.559020 38.197381 8 90.608680578129 0 342.46215820312 86 1 delete
10:15:31 44.559009 38.197389 12 91.052306168122 0.0045552002266049 258.99893188477 86 1 delete
10:15:28 44.559015 38.197402 16 91.335155562741 0.45525318384171 258.99893188477 86 1 delete
10:15:16 44.559039 38.197414 32 91.70353178104 0 258.99893188477 86 1 delete
10:15:04 44.559045 38.197416 24 91.44260670716 0.26751825213432 258.99893188477 86 1 delete
10:14:52 44.559047 38.197408 24 91.01690536251 0 258.99893188477 86 1 delete
10:14:40 44.559059 38.197418 16 92.38918294364 0 192.74351501465 86 1 delete
10:14:31 44.559070 38.197430 16 93.525797478573 0.016823161393404 25.606359481812 86 1 delete
10:14:19 44.559055 38.197433 8 94.571261066296 0.64965397119522 25.606359481812 86 1 delete
10:14:16 44.559047 38.197428 16 94.857952468926 0.41353085637093 255.24618530273 86 1 delete
10:14:07 44.559061 38.197445 12 95.373607061637 0.90082377195358 227.63949584961 86 1 delete
10:14:01 44.559087 38.197467 16 96.175205911395 0.1939522176981 72.529998779297 86 1 delete
10:13:55 44.559109 38.197477 24 96.683117584929 0.2263455837965 195.97204589844 86 1 delete
10:13:52 44.559129 38.197498 12 97.176054656497 0.4225118458271 195.97204589844 86 1 delete
10:13:46 44.559210 38.197491 12 99.201479462677 1.7931098937988 210.65434265137 86 1 delete
10:13:43 44.559265 38.197522 12 100.45369383063 1.9225885868073 200.6576385498 86 1 delete
10:13:40 44.559324 38.197558 16 101.7731280678 1.9561895132065 224.20028686523 86 1 delete
10:13:37 44.559382 38.197628 12 103.09391945124 1.934396982193 192.63484191895 86 1 delete
10:13:34 44.559467 38.197675 16 104.15062252043 1.9405589103699 187.02879333496 86 1 delete
10:13:31 44.559514 38.197694 16 105.29425594756 2.0106658935547 178.0174407959 86 1 delete
10:13:28 44.559601 38.197694 16 106.17299768969 1.9550815820694 192.48873901367 86 1 delete
10:13:25 44.559657 38.197722 16 107.13294213166 1.9234515428543 197.93276977539 86 1 delete
10:13:22 44.559719 38.197753 16 108.10240214043 1.8614798784256 205.2066192627 86 1 delete
10:13:19 44.559771 38.197766 12 109.13508095382 1.8613330125809 241.50445556641 86 1 delete
10:13:16 44.559787 38.197859 12 109.9774163394 1.9311671257019 198.15899658203 86 1 delete
10:13:13 44.559854 38.197903 16 110.97448386751 2.1384265422821 204.13844299316 86 1 delete
10:13:10 44.559893 38.197938 16 111.91952455163 2.2784495353699 199.14172363281 86 1 delete
10:13:07 44.559940 38.197961 16 112.6733361346 2.4020736217499 222.66136169434 86 1 delete
10:13:04 44.560020 38.198020 12 113.65754434681 2.270902633667 209.22657775879 86 1 delete
10:13:01 44.560072 38.198076 12 114.53610307163 2.3183455467224 202.52976989746 86 1 delete
10:12:58 44.560190 38.198137 16 115.64255973936 1.9569078683853 193.52801513672 86 1 delete
10:12:46 44.560336 38.198264 12 118.16586883979 0 215.06358337402 86 1 delete
10:12:43 44.560336 38.198264 12 118.27456048159 0.98856979608536 215.06358337402 86 1 delete
10:12:34 44.560418 38.198366 16 120.86145024543 0.024282973259687 231.83172607422 86 1 delete
10:12:25 44.560441 38.198435 12 121.69029468819 0.96771502494812 267.43322753906 86 1 delete
10:12:22 44.560439 38.198555 24 122.24491050339 0.66385436058044 267.44506835938 86 1 delete